Time;durP1;ratioP1;P1;durP2;ratioP2;P2;SDS_P1;SDS_P2;PMS_P1;PMS_P2;Temp;Humidity;BMP_temperature;BMP_pressure;BME280_temperature;BME280_humidity;BME280_pressure;Samples;Min_cycle;Max_cycle;Signal;HPM_P1;HPM_P2
2023/03/26 00:01:00;;;;;;;0.40;0.40;;;;;;;9.43;95.25;99631.88;4936722;28;20479;-52
2023/03/26 00:03:28;;;;;;;7.40;0.50;;;;;;;9.25;96.14;99643.13;4936643;28;20898;-52
2023/03/26 00:06:04;;;;;;;0.60;0.57;;;;;;;9.34;96.37;99641.03;4924564;28;20462;-52
2023/03/26 00:08:31;;;;;;;0.70;0.70;;;;;;;9.44;95.30;99637.13;4947459;28;20459;-52
2023/03/26 00:10:57;;;;;;;0.60;0.33;;;;;;;9.33;95.64;99636.66;4938033;28;20509;-53
2023/03/26 00:13:26;;;;;;;0.40;0.30;;;;;;;9.32;95.86;99634.91;4932596;28;20472;-52
2023/03/26 00:15:53;;;;;;;0.43;0.30;;;;;;;9.34;95.77;99634.88;4942333;28;20465;-53
2023/03/26 00:18:23;;;;;;;2.67;0.80;;;;;;;9.23;96.60;99640.53;4936098;28;20467;-53
2023/03/26 00:20:50;;;;;;;0.80;0.57;;;;;;;9.23;96.44;99637.00;4939929;28;20471;-52
2023/03/26 00:23:17;;;;;;;18.90;1.10;;;;;;;9.19;96.32;99646.84;4942972;29;20462;-53
2023/03/26 00:25:44;;;;;;;0.33;0.27;;;;;;;9.20;96.53;99640.63;4939370;28;20559;-54
2023/03/26 00:28:10;;;;;;;5.93;0.40;;;;;;;9.20;96.48;99644.16;4935954;28;20487;-52
2023/03/26 00:30:40;;;;;;;0.50;0.50;;;;;;;9.22;96.28;99640.59;4939181;28;20919;-52
2023/03/26 00:33:07;;;;;;;0.67;0.60;;;;;;;9.17;96.37;99644.22;4942335;28;20945;-53
2023/03/26 00:35:37;;;;;;;12.10;0.97;;;;;;;9.33;96.07;99638.44;4940056;29;20483;-53
2023/03/26 00:38:03;;;;;;;0.60;0.57;;;;;;;9.31;96.24;99632.28;4936026;28;20953;-51
2023/03/26 00:40:30;;;;;;;0.60;0.60;;;;;;;9.22;97.01;99643.22;4937262;28;21004;-53
2023/03/26 00:42:57;;;;;;;1.73;0.50;;;;;;;9.14;97.20;99635.53;4936997;28;20815;-53
2023/03/26 00:45:23;;;;;;;4.00;0.53;;;;;;;9.27;96.69;99628.88;4940483;28;20475;-52
2023/03/26 00:47:50;;;;;;;1.67;0.67;;;;;;;9.09;97.08;99633.03;4938067;28;20562;-53
2023/03/26 00:50:17;;;;;;;3.60;0.30;;;;;;;9.24;96.83;99634.31;4935649;28;20527;-53
2023/03/26 00:52:45;;;;;;;0.50;0.40;;;;;;;9.17;97.33;99630.97;4942042;29;20958;-52
2023/03/26 00:55:12;;;;;;;4.63;0.60;;;;;;;9.19;98.20;99626.50;4935748;28;20907;-54
2023/03/26 00:57:39;;;;;;;3.13;0.87;;;;;;;9.14;98.15;99614.31;4945113;28;20466;-53
2023/03/26 01:00:15;;;;;;;3.10;0.90;;;;;;;9.25;97.63;99616.59;4935704;28;20905;-53
2023/03/26 01:02:43;;;;;;;2.93;1.27;;;;;;;9.16;97.71;99615.97;4925472;28;20967;-52
2023/03/26 01:05:35;;;;;;;2.00;0.50;;;;;;;9.14;97.86;99611.66;4935487;28;20869;-53
2023/03/26 01:08:13;;;;;;;5.33;0.63;;;;;;;9.09;97.91;99606.53;4937457;28;20471;-53
2023/03/26 01:10:42;;;;;;;0.50;0.40;;;;;;;9.14;97.76;99599.25;4941443;29;20531;-53
2023/03/26 01:13:09;;;;;;;1.80;0.40;;;;;;;9.22;97.25;99598.16;4941800;28;20469;-53
2023/03/26 01:15:36;;;;;;;1.60;1.50;;;;;;;9.19;97.78;99594.69;4941403;28;20964;-53
2023/03/26 01:18:08;;;;;;;2.10;0.37;;;;;;;9.22;97.90;99588.41;4935403;28;20488;-53
2023/03/26 01:20:45;;;;;;;0.60;0.50;;;;;;;8.92;97.23;99590.31;4940805;28;20479;-51
2023/03/26 01:23:18;;;;;;;1.47;1.13;;;;;;;8.66;98.61;99583.22;4935138;29;20514;-52
2023/03/26 01:25:57;;;;;;;1.83;0.97;;;;;;;8.56;98.62;99582.63;4938382;28;20460;-53
2023/03/26 01:28:27;;;;;;;3.80;0.80;;;;;;;8.53;99.98;99585.38;4941871;29;20456;-52
2023/03/26 01:31:24;;;;;;;0.60;0.50;;;;;;;8.41;100.00;99583.13;4940563;29;20502;-53
2023/03/26 01:34:01;;;;;;;0.40;0.30;;;;;;;8.47;100.00;99576.75;4944718;28;20858;-51
2023/03/26 01:36:41;;;;;;;0.40;0.30;;;;;;;8.32;100.00;99578.94;4942097;29;20458;-52
2023/03/26 01:39:17;;;;;;;5.30;0.60;;;;;;;8.46;100.00;99564.44;4941556;29;20451;-53
2023/03/26 01:41:49;;;;;;;1.13;0.93;;;;;;;8.30;100.00;99559.59;4940397;28;20471;-53
2023/03/26 01:44:26;;;;;;;0.40;0.20;;;;;;;8.56;100.00;99547.34;4939607;28;20459;-52
2023/03/26 01:46:54;;;;;;;0.30;0.20;;;;;;;8.64;100.00;99547.09;4941861;29;20452;-53
2023/03/26 01:49:21;;;;;;;0.80;0.80;;;;;;;8.75;100.00;99542.28;4939923;29;20459;-52
2023/03/26 01:51:47;;;;;;;0.90;0.77;;;;;;;8.83;100.00;99533.19;4945765;29;20949;-54
2023/03/26 01:54:20;;;;;;;0.70;0.70;;;;;;;8.80;100.00;99535.94;4935654;28;20467;-52
2023/03/26 01:57:22;;;;;;;0.40;0.30;;;;;;;8.86;100.00;99535.72;4922969;29;20455;-52
2023/03/26 02:00:06;;;;;;;2.60;0.70;;;;;;;8.88;100.00;99528.56;4934772;28;20479;-53
2023/03/26 02:02:41;;;;;;;1.80;0.50;;;;;;;8.79;100.00;99518.31;4934865;28;20911;-54
2023/03/26 02:05:27;;;;;;;2.10;0.40;;;;;;;8.92;100.00;99524.06;4947305;28;20850;-53
2023/03/26 02:08:04;;;;;;;7.60;1.20;;;;;;;8.86;100.00;99522.47;4935100;28;20455;-52
2023/03/26 02:10:38;;;;;;;1.20;1.20;;;;;;;8.82;100.00;99514.69;4934327;28;20859;-51
2023/03/26 02:13:05;;;;;;;0.60;0.60;;;;;;;8.78;100.00;99516.59;4924669;28;20455;-52
2023/03/26 02:15:32;;;;;;;7.03;0.90;;;;;;;8.76;100.00;99517.53;4934982;28;20543;-53
2023/03/26 02:18:00;;;;;;;30.87;2.20;;;;;;;8.81;100.00;99519.13;4942046;28;20628;-52
2023/03/26 02:20:29;;;;;;;0.97;0.70;;;;;;;8.75;100.00;99510.50;4941293;29;20471;-52
2023/03/26 02:22:56;;;;;;;0.67;0.63;;;;;;;8.54;100.00;99517.38;4936863;28;20465;-53
2023/03/26 02:25:23;;;;;;;1.30;1.20;;;;;;;8.61;100.00;99506.53;4934617;28;20463;-53
2023/03/26 02:27:51;;;;;;;20.13;1.43;;;;;;;8.60;100.00;99502.16;4939902;29;20957;-53
2023/03/26 02:30:24;;;;;;;0.50;0.43;;;;;;;8.52;100.00;99508.63;4943853;28;20514;-52
2023/03/26 02:32:52;;;;;;;4.13;0.77;;;;;;;8.56;100.00;99491.72;4941807;28;20463;-52
2023/03/26 02:35:20;;;;;;;0.60;0.60;;;;;;;8.54;100.00;99491.78;4937568;28;20466;-53
2023/03/26 02:37:49;;;;;;;2.43;0.57;;;;;;;8.39;100.00;99488.75;4939892;28;20495;-52
2023/03/26 02:40:17;;;;;;;0.67;0.50;;;;;;;8.34;100.00;99488.88;4943944;29;20476;-53
2023/03/26 02:42:44;;;;;;;1.93;0.63;;;;;;;8.12;100.00;99482.53;4942303;29;20459;-52
2023/03/26 02:45:10;;;;;;;1.23;0.77;;;;;;;8.25;100.00;99486.53;4934149;28;20457;-52
2023/03/26 02:47:37;;;;;;;0.70;0.60;;;;;;;8.11;100.00;99483.47;4942958;28;20459;-53
2023/03/26 02:50:04;;;;;;;3.93;0.30;;;;;;;8.14;100.00;99476.28;4938653;28;20499;-52
2023/03/26 02:52:30;;;;;;;0.60;0.50;;;;;;;8.01;100.00;99473.16;4942429;28;21011;-52
2023/03/26 02:54:57;;;;;;;0.60;0.53;;;;;;;8.07;100.00;99469.44;4938453;28;20463;-53
2023/03/26 02:57:24;;;;;;;2.20;0.73;;;;;;;8.09;100.00;99461.47;4940207;29;21139;-53
2023/03/26 02:59:51;;;;;;;0.80;0.50;;;;;;;8.03;100.00;99458.09;4938105;28;20494;-53
2023/03/26 03:02:18;;;;;;;1.70;1.60;;;;;;;8.19;100.00;99458.44;4944019;28;20486;-52
2023/03/26 03:04:45;;;;;;;0.40;0.30;;;;;;;8.12;100.00;99459.59;4943933;29;20459;-53
2023/03/26 03:07:13;;;;;;;1.53;0.93;;;;;;;8.09;100.00;99458.81;4937460;28;20456;-52
2023/03/26 03:09:40;;;;;;;0.50;0.43;;;;;;;8.12;100.00;99443.69;4937222;28;20460;-51
2023/03/26 03:12:06;;;;;;;0.47;0.43;;;;;;;8.03;100.00;99447.50;4943302;28;20496;-53
2023/03/26 03:14:33;;;;;;;0.40;0.30;;;;;;;8.24;100.00;99438.00;4936479;28;20470;-53
2023/03/26 03:16:59;;;;;;;0.60;0.40;;;;;;;8.33;100.00;99436.81;4943275;28;20467;-53
2023/03/26 03:19:26;;;;;;;15.13;2.00;;;;;;;8.36;100.00;99427.94;4943639;28;20459;-53
2023/03/26 03:21:52;;;;;;;0.40;0.40;;;;;;;8.39;100.00;99434.03;4937660;28;20477;-53
2023/03/26 03:24:19;;;;;;;1.03;0.67;;;;;;;8.39;100.00;99422.56;4936836;28;20964;-52
2023/03/26 03:26:46;;;;;;;1.33;0.50;;;;;;;8.29;100.00;99421.97;4942813;28;20464;-52
2023/03/26 03:29:12;;;;;;;0.60;0.50;;;;;;;8.36;100.00;99423.53;4937722;29;20460;-53
2023/03/26 03:31:40;;;;;;;0.40;0.30;;;;;;;8.23;100.00;99417.75;4942618;28;20500;-51
2023/03/26 03:34:06;;;;;;;2.17;0.40;;;;;;;8.47;100.00;99421.38;4943295;29;20466;-53
2023/03/26 03:36:37;;;;;;;0.57;0.40;;;;;;;8.37;100.00;99409.38;4938024;28;20460;-53
2023/03/26 03:39:04;;;;;;;0.50;0.50;;;;;;;8.41;100.00;99411.00;4935268;28;20491;-52
2023/03/26 03:41:30;;;;;;;10.50;1.07;;;;;;;8.50;100.00;99404.53;4941599;28;20510;-51
2023/03/26 03:43:58;;;;;;;2.00;1.17;;;;;;;8.56;100.00;99404.31;4939946;29;20506;-53
2023/03/26 03:46:25;;;;;;;1.00;0.80;;;;;;;8.40;100.00;99411.06;4939046;28;20463;-52
2023/03/26 03:48:51;;;;;;;7.70;1.30;;;;;;;8.49;100.00;99398.34;4937179;28;20460;-53
2023/03/26 03:51:18;;;;;;;0.30;0.20;;;;;;;8.38;100.00;99394.34;4941365;28;20508;-52
2023/03/26 03:53:44;;;;;;;2.20;1.03;;;;;;;8.32;100.00;99387.44;4943621;29;20456;-52
2023/03/26 03:56:13;;;;;;;0.57;0.40;;;;;;;8.32;100.00;99380.34;4939769;29;20459;-52
2023/03/26 03:58:40;;;;;;;1.50;0.60;;;;;;;8.48;100.00;99378.06;4945593;28;20464;-51
2023/03/26 04:01:06;;;;;;;0.50;0.50;;;;;;;8.70;100.00;99366.72;4940532;28;20476;-51
2023/03/26 04:03:37;;;;;;;4.13;1.17;;;;;;;8.68;100.00;99356.19;4942906;28;20488;-51
2023/03/26 04:06:09;;;;;;;1.60;0.53;;;;;;;8.74;100.00;99348.00;4931472;28;20514;-52
2023/03/26 04:08:36;;;;;;;0.97;0.63;;;;;;;8.70;100.00;99340.25;4943307;29;20471;-51
2023/03/26 04:11:03;;;;;;;0.50;0.43;;;;;;;8.53;100.00;99332.91;4936690;28;20503;-51
2023/03/26 04:13:30;;;;;;;9.73;1.83;;;;;;;8.69;100.00;99330.56;4942804;29;20460;-52
2023/03/26 04:15:56;;;;;;;1.00;0.60;;;;;;;8.69;100.00;99336.72;4940620;29;20783;-53
2023/03/26 04:18:25;;;;;;;9.73;1.00;;;;;;;8.53;100.00;99336.41;4935883;28;20899;-52
2023/03/26 04:20:53;;;;;;;0.30;0.20;;;;;;;8.57;100.00;99343.34;4938222;28;20491;-52
2023/03/26 04:23:21;;;;;;;1.57;0.40;;;;;;;8.56;100.00;99328.34;4934428;29;20558;-51
2023/03/26 04:25:52;;;;;;;4.60;1.07;;;;;;;8.25;100.00;99323.25;4937680;28;20542;-51
2023/03/26 04:28:30;;;;;;;0.60;0.53;;;;;;;8.43;100.00;99305.88;4942591;29;20452;-52
2023/03/26 04:30:59;;;;;;;0.57;0.40;;;;;;;8.63;100.00;99293.69;4942293;29;20510;-52
2023/03/26 04:33:29;;;;;;;0.43;0.30;;;;;;;8.93;100.00;99276.66;4937060;29;20456;-51
2023/03/26 04:36:00;;;;;;;0.40;0.30;;;;;;;8.79;100.00;99268.38;4935823;28;20463;-51
2023/03/26 04:38:38;;;;;;;2.97;1.13;;;;;;;8.75;100.00;99266.75;4947075;28;20463;-52
2023/03/26 04:41:06;;;;;;;0.50;0.20;;;;;;;8.55;100.00;99272.78;4935775;28;20467;-52
2023/03/26 04:43:36;;;;;;;7.80;0.43;;;;;;;8.47;100.00;99270.41;4938421;28;20456;-52
2023/03/26 04:46:03;;;;;;;1.30;1.20;;;;;;;8.42;100.00;99264.44;4936917;28;20482;-52
2023/03/26 04:48:29;;;;;;;41.50;1.63;;;;;;;8.56;100.00;99261.28;4936601;28;20463;-51
2023/03/26 04:50:56;;;;;;;11.63;0.90;;;;;;;8.66;100.00;99262.69;4941834;28;20504;-52
2023/03/26 04:53:23;;;;;;;0.70;0.43;;;;;;;8.71;100.00;99262.50;4941489;29;20460;-51
2023/03/26 04:55:58;;;;;;;0.83;0.83;;;;;;;8.67;100.00;99261.75;4935362;28;20459;-51
2023/03/26 04:58:31;;;;;;;0.73;0.70;;;;;;;8.73;100.00;99263.28;4935937;28;20459;-52
2023/03/26 05:01:00;;;;;;;0.50;0.50;;;;;;;8.74;100.00;99257.94;4940805;28;20981;-51
2023/03/26 05:03:38;;;;;;;0.83;0.60;;;;;;;8.79;100.00;99244.53;4941905;28;20543;-51
2023/03/26 05:06:05;;;;;;;0.60;0.53;;;;;;;8.69;100.00;99232.56;4939203;28;20542;-52
2023/03/26 05:08:32;;;;;;;15.03;0.47;;;;;;;8.77;100.00;99230.44;4935331;28;20578;-51
2023/03/26 05:10:59;;;;;;;4.93;1.80;;;;;;;8.56;100.00;99233.00;4938410;28;20630;-51
2023/03/26 05:13:25;;;;;;;0.53;0.43;;;;;;;8.67;100.00;99229.09;4941999;29;20461;-50
2023/03/26 05:15:52;;;;;;;0.80;0.80;;;;;;;8.71;100.00;99234.22;4939233;28;20976;-52
2023/03/26 05:18:18;;;;;;;4.53;0.70;;;;;;;8.50;100.00;99232.38;4955010;28;20469;-52
2023/03/26 05:20:45;;;;;;;3.43;0.73;;;;;;;8.64;100.00;99219.50;4938966;28;20471;-51
2023/03/26 05:23:11;;;;;;;3.20;0.87;;;;;;;8.59;100.00;99206.41;4930969;28;20746;-51
2023/03/26 05:25:38;;;;;;;11.07;1.00;;;;;;;8.49;100.00;99206.78;4939046;29;20478;-51
2023/03/26 05:28:04;;;;;;;17.97;1.47;;;;;;;8.50;100.00;99203.25;4935298;28;20462;-51
2023/03/26 05:30:31;;;;;;;8.13;1.70;;;;;;;8.67;100.00;99200.81;4937665;28;20476;-52
2023/03/26 05:32:57;;;;;;;1.80;0.40;;;;;;;8.76;100.00;99186.34;4941746;28;20456;-52
2023/03/26 05:35:24;;;;;;;1.97;0.70;;;;;;;8.88;100.00;99183.22;4939633;28;20486;-51
2023/03/26 05:37:50;;;;;;;0.40;0.33;;;;;;;8.83;100.00;99185.19;4934866;28;20469;-52
2023/03/26 05:40:17;;;;;;;0.50;0.30;;;;;;;8.82;100.00;99186.13;4936898;28;21017;-51
2023/03/26 05:42:44;;;;;;;0.40;0.30;;;;;;;8.75;100.00;99192.56;4941766;28;20456;-52
2023/03/26 05:45:13;;;;;;;5.17;0.80;;;;;;;8.79;100.00;99184.47;4930468;28;20453;-51
2023/03/26 05:47:39;;;;;;;0.50;0.40;;;;;;;8.84;100.00;99187.78;4941567;28;20513;-51
2023/03/26 05:50:07;;;;;;;1.00;0.63;;;;;;;8.84;100.00;99177.19;4940324;29;20558;-53
2023/03/26 05:52:34;;;;;;;1.53;0.97;;;;;;;8.60;100.00;99183.41;4934610;28;20509;-53
2023/03/26 05:55:00;;;;;;;10.40;0.50;;;;;;;8.77;100.00;99178.34;4935937;28;20568;-53
2023/03/26 05:57:30;;;;;;;1.07;1.07;;;;;;;8.82;100.00;99178.16;4934840;29;20460;-52
2023/03/26 05:59:56;;;;;;;0.93;0.80;;;;;;;8.79;100.00;99175.66;4934865;28;20475;-51
2023/03/26 06:02:23;;;;;;;4.00;1.13;;;;;;;8.81;100.00;99165.84;4942066;28;20452;-52
2023/03/26 06:04:49;;;;;;;13.23;0.93;;;;;;;8.84;100.00;99158.63;4932637;28;20456;-53
2023/03/26 06:07:17;;;;;;;6.10;1.13;;;;;;;8.47;100.00;99151.25;4944508;29;20832;-52
2023/03/26 06:09:44;;;;;;;11.30;2.03;;;;;;;8.65;100.00;99151.47;4944703;29;20467;-51
2023/03/26 06:12:10;;;;;;;1.23;1.13;;;;;;;8.73;100.00;99146.72;4947742;28;20577;-52
2023/03/26 06:14:37;;;;;;;0.40;0.30;;;;;;;8.70;100.00;99141.56;4937815;28;20456;-52
2023/03/26 06:17:04;;;;;;;3.50;0.70;;;;;;;8.75;100.00;99144.88;4944044;28;20882;-52
2023/03/26 06:19:30;;;;;;;2.20;1.07;;;;;;;8.77;100.00;99137.72;4943867;29;20521;-52
2023/03/26 06:21:56;;;;;;;7.70;0.67;;;;;;;8.79;100.00;99127.97;4938849;28;20505;-52
2023/03/26 06:24:23;;;;;;;5.03;0.70;;;;;;;8.68;100.00;99125.72;4937058;28;20499;-54
2023/03/26 06:26:50;;;;;;;5.23;0.93;;;;;;;8.97;100.00;99119.25;4946077;28;20912;-54
2023/03/26 06:29:16;;;;;;;0.70;0.57;;;;;;;8.87;100.00;99121.41;4937848;28;20460;-53
2023/03/26 06:31:43;;;;;;;1.07;0.50;;;;;;;8.94;100.00;99113.22;4943592;28;20522;-51
2023/03/26 06:34:09;;;;;;;1.00;0.70;;;;;;;8.83;100.00;99109.22;4944650;28;20487;-54
2023/03/26 06:36:36;;;;;;;2.07;0.90;;;;;;;8.76;100.00;99112.16;4934812;29;20561;-53
2023/03/26 06:39:03;;;;;;;1.80;1.70;;;;;;;8.79;100.00;99098.81;4935397;28;20464;-53
2023/03/26 06:41:34;;;;;;;2.20;2.10;;;;;;;8.91;100.00;99098.31;4936141;28;20503;-53
2023/03/26 06:44:00;;;;;;;0.63;0.63;;;;;;;8.75;100.00;99095.41;4951653;28;20495;-53
2023/03/26 06:46:27;;;;;;;0.57;0.53;;;;;;;8.74;100.00;99095.47;4939913;28;20451;-54
2023/03/26 06:48:54;;;;;;;1.13;0.80;;;;;;;8.90;100.00;99108.03;4937487;28;20456;-53
2023/03/26 06:51:21;;;;;;;0.87;0.87;;;;;;;9.01;100.00;99098.78;4941089;28;20872;-53
2023/03/26 06:53:47;;;;;;;11.83;1.70;;;;;;;9.03;100.00;99100.44;4944032;29;20533;-53
2023/03/26 06:56:14;;;;;;;15.23;2.77;;;;;;;9.10;100.00;99091.31;4935441;28;20945;-53
2023/03/26 06:58:40;;;;;;;1.80;1.70;;;;;;;9.04;100.00;99088.91;4941721;29;20463;-53
2023/03/26 07:01:07;;;;;;;1.60;0.70;;;;;;;9.07;100.00;99085.28;4940004;28;20483;-53
2023/03/26 07:03:33;;;;;;;1.87;1.70;;;;;;;8.98;100.00;99067.97;4944554;28;20987;-53
2023/03/26 07:06:00;;;;;;;2.40;0.47;;;;;;;9.02;100.00;99058.94;4939470;28;20510;-55
2023/03/26 07:08:26;;;;;;;1.57;1.17;;;;;;;8.86;100.00;99049.94;4943820;29;20456;-54
2023/03/26 07:10:53;;;;;;;0.47;0.47;;;;;;;8.66;100.00;99061.34;4933582;28;20494;-54
2023/03/26 07:13:20;;;;;;;5.50;3.53;;;;;;;8.94;100.00;99046.97;4946621;28;20474;-53
2023/03/26 07:15:47;;;;;;;2.00;0.87;;;;;;;8.89;100.00;99039.19;4939470;28;20492;-54
2023/03/26 07:18:14;;;;;;;0.50;0.30;;;;;;;8.74;100.00;99043.34;4936914;28;20474;-53
2023/03/26 07:20:42;;;;;;;0.60;0.60;;;;;;;8.64;100.00;99034.06;4941521;28;20490;-53
2023/03/26 07:23:11;;;;;;;1.07;0.80;;;;;;;8.61;100.00;99023.56;4933583;28;20538;-53
2023/03/26 07:25:37;;;;;;;0.40;0.30;;;;;;;8.69;100.00;99012.69;4942259;29;20513;-54
2023/03/26 07:28:31;;;;;;;11.43;2.00;;;;;;;8.67;100.00;99006.59;4927052;28;20457;-55
2023/03/26 07:31:23;;;;;;;0.70;0.43;;;;;;;8.68;100.00;99008.31;4943254;29;20476;-51
2023/03/26 07:34:09;;;;;;;0.73;0.73;;;;;;;8.67;100.00;99009.25;4934372;29;20913;-54
2023/03/26 07:36:55;;;;;;;1.63;0.70;;;;;;;8.66;100.00;99003.09;4932178;29;20455;-54
2023/03/26 07:39:45;;;;;;;0.47;0.40;;;;;;;8.81;100.00;98997.13;4936491;29;20463;-54
2023/03/26 07:42:20;;;;;;;0.70;0.70;;;;;;;8.73;100.00;99003.66;4935388;28;20452;-53
2023/03/26 07:44:58;;;;;;;1.30;0.83;;;;;;;8.73;100.00;99001.03;4942762;28;20460;-54
2023/03/26 07:47:34;;;;;;;0.43;0.20;;;;;;;8.66;100.00;99003.09;4943232;28;20980;-53
2023/03/26 07:50:01;;;;;;;6.43;1.43;;;;;;;8.88;100.00;99005.66;4941974;29;20486;-52
2023/03/26 07:52:28;;;;;;;0.30;0.20;;;;;;;9.11;100.00;99005.56;4936498;28;20491;-54
2023/03/26 07:54:55;;;;;;;0.73;0.63;;;;;;;8.85;100.00;99011.09;4937596;28;20460;-52
2023/03/26 07:57:48;;;;;;;5.00;0.93;;;;;;;9.04;100.00;99009.38;4942962;29;20468;-54
2023/03/26 08:00:29;;;;;;;3.17;1.60;;;;;;;9.09;100.00;99015.38;4943206;28;20476;-53
2023/03/26 08:03:37;;;;;;;1.73;1.63;;;;;;;9.19;100.00;99011.41;4941255;29;20459;-54
2023/03/26 08:06:10;;;;;;;3.20;0.67;;;;;;;9.20;100.00;99005.16;4938997;28;20825;-55
2023/03/26 08:08:51;;;;;;;5.00;0.90;;;;;;;9.24;100.00;99005.03;4942944;29;20839;-52
2023/03/26 08:11:39;;;;;;;0.67;0.63;;;;;;;9.16;100.00;99003.56;4942492;28;20499;-53
2023/03/26 08:14:14;;;;;;;0.70;0.60;;;;;;;9.25;100.00;99004.97;4938503;29;20482;-54
2023/03/26 08:16:55;;;;;;;0.50;0.50;;;;;;;9.28;100.00;98996.84;4942952;29;20467;-54
2023/03/26 08:19:53;;;;;;;1.03;0.93;;;;;;;9.18;100.00;98984.94;4942596;28;20459;-53
2023/03/26 08:22:28;;;;;;;0.90;0.53;;;;;;;9.08;100.00;98984.50;4939322;28;20464;-55
2023/03/26 08:25:12;;;;;;;2.87;0.40;;;;;;;9.32;100.00;98987.88;4941871;29;20452;-54
2023/03/26 08:27:46;;;;;;;15.93;0.30;;;;;;;9.37;100.00;98975.25;4942552;28;20458;-54
2023/03/26 08:30:17;;;;;;;0.80;0.50;;;;;;;9.31;100.00;98964.03;4938330;29;21012;-54
2023/03/26 08:32:53;;;;;;;0.50;0.37;;;;;;;9.35;100.00;98963.00;4935734;28;20499;-54
2023/03/26 08:35:20;;;;;;;0.80;0.80;;;;;;;9.36;100.00;98956.75;4938516;28;20455;-54
2023/03/26 08:37:46;;;;;;;2.20;0.80;;;;;;;9.26;100.00;98944.84;4942482;28;20840;-54
2023/03/26 08:40:28;;;;;;;0.40;0.30;;;;;;;9.15;100.00;98945.31;4940124;29;20562;-53
2023/03/26 08:43:13;;;;;;;2.63;0.70;;;;;;;9.20;100.00;98930.06;4935806;28;20509;-54
2023/03/26 08:45:55;;;;;;;0.70;0.43;;;;;;;9.12;100.00;98924.25;4937619;28;20539;-55
2023/03/26 08:49:06;;;;;;;1.43;0.97;;;;;;;9.05;100.00;98934.28;4938203;28;20518;-52
2023/03/26 08:51:50;;;;;;;5.33;0.60;;;;;;;9.20;100.00;98938.03;4935540;29;20496;-54
2023/03/26 08:54:32;;;;;;;1.13;0.40;;;;;;;9.43;100.00;98943.13;4942095;29;20464;-54
2023/03/26 08:57:12;;;;;;;0.77;0.53;;;;;;;9.57;100.00;98929.22;4942271;29;20455;-54
2023/03/26 09:00:01;;;;;;;0.50;0.50;;;;;;;9.48;100.00;98922.59;4939570;29;20945;-54
2023/03/26 09:03:10;;;;;;;0.47;0.27;;;;;;;9.56;100.00;98922.22;4924982;29;20501;-53
2023/03/26 09:05:45;;;;;;;2.10;0.40;;;;;;;9.68;100.00;98919.00;4932761;28;20808;-54
2023/03/26 09:08:44;;;;;;;0.60;0.50;;;;;;;9.58;100.00;98915.03;4935436;28;20451;-54
2023/03/26 09:11:53;;;;;;;1.87;0.53;;;;;;;9.87;100.00;98919.00;4934620;28;20506;-55
2023/03/26 09:15:01;;;;;;;0.47;0.33;;;;;;;10.11;100.00;98922.25;4937474;28;20510;-54
2023/03/26 09:17:49;;;;;;;8.40;1.07;;;;;;;9.98;100.00;98913.16;4931528;29;21010;-53
2023/03/26 09:20:33;;;;;;;0.80;0.40;;;;;;;10.12;100.00;98921.31;4941632;28;20480;-53
2023/03/26 09:23:37;;;;;;;0.50;0.50;;;;;;;10.17;100.00;98913.13;4941834;28;20996;-53
2023/03/26 09:26:21;;;;;;;1.37;0.47;;;;;;;10.15;100.00;98921.19;4941887;28;20459;-52
2023/03/26 09:29:07;;;;;;;4.27;0.53;;;;;;;10.13;100.00;98915.06;4939312;28;20448;-52
2023/03/26 09:31:56;;;;;;;0.50;0.30;;;;;;;10.15;100.00;98915.00;4921841;29;20479;-53
2023/03/26 09:34:29;;;;;;;1.70;0.97;;;;;;;10.18;100.00;98910.41;4935536;28;20517;-54
2023/03/26 09:37:17;;;;;;;4.63;0.80;;;;;;;10.23;100.00;98900.44;4938787;28;20510;-52
2023/03/26 09:40:15;;;;;;;8.53;0.47;;;;;;;10.41;100.00;98895.97;4928059;29;20455;-54
2023/03/26 09:43:19;;;;;;;1.43;0.50;;;;;;;10.39;100.00;98897.88;4943322;28;20516;-53
2023/03/26 09:45:48;;;;;;;0.50;0.30;;;;;;;10.58;100.00;98890.69;4939526;28;20481;-54
2023/03/26 09:48:36;;;;;;;3.50;0.50;;;;;;;10.93;100.00;98878.22;4936645;28;20479;-53
2023/03/26 09:51:22;;;;;;;3.50;0.67;;;;;;;10.98;100.00;98872.69;4937960;28;20475;-54
2023/03/26 09:54:28;;;;;;;1.30;0.60;;;;;;;11.32;100.00;98874.38;4944814;29;20496;-53
2023/03/26 09:57:07;;;;;;;0.60;0.50;;;;;;;11.38;100.00;98870.53;4944832;29;21018;-55
2023/03/26 09:59:50;;;;;;;2.07;0.70;;;;;;;11.45;100.00;98859.47;4941695;28;20466;-54
2023/03/26 10:02:32;;;;;;;0.50;0.33;;;;;;;11.70;100.00;98856.28;4938117;28;20447;-54
2023/03/26 10:05:21;;;;;;;1.07;1.00;;;;;;;11.72;100.00;98856.22;4938312;28;20873;-56
2023/03/26 10:07:56;;;;;;;0.73;0.57;;;;;;;11.75;100.00;98856.03;4940124;28;20459;-55
2023/03/26 10:10:25;;;;;;;0.50;0.40;;;;;;;11.72;100.00;98841.09;4944420;29;20471;-56
2023/03/26 10:13:02;;;;;;;2.90;0.63;;;;;;;11.81;100.00;98845.09;4944412;29;20549;-54
2023/03/26 10:16:05;;;;;;;7.93;0.73;;;;;;;11.64;99.91;98842.47;4941975;28;20835;-55
2023/03/26 10:18:48;;;;;;;1.53;0.80;;;;;;;11.82;100.00;98838.81;4938768;28;20542;-55
2023/03/26 10:21:32;;;;;;;0.77;0.30;;;;;;;11.81;100.00;98834.44;4937862;28;20476;-56
2023/03/26 10:24:09;;;;;;;0.60;0.50;;;;;;;12.00;100.00;98837.75;4939767;28;20895;-55
2023/03/26 10:26:56;;;;;;;10.23;0.50;;;;;;;11.77;100.00;98828.38;4944520;28;20474;-54
2023/03/26 10:29:53;;;;;;;0.40;0.30;;;;;;;11.69;100.00;98829.78;4944686;29;20452;-55
2023/03/26 10:32:57;;;;;;;0.63;0.40;;;;;;;11.88;100.00;98838.44;4944206;28;20879;-56
2023/03/26 10:35:45;;;;;;;0.70;0.70;;;;;;;11.50;100.00;98841.44;4939218;29;20534;-56
2023/03/26 10:38:33;;;;;;;0.53;0.37;;;;;;;11.83;100.00;98832.53;4928542;29;20451;-54
2023/03/26 10:41:25;;;;;;;1.37;0.73;;;;;;;11.50;100.00;98820.13;4937750;28;20530;-54
2023/03/26 10:44:10;;;;;;;0.50;0.30;;;;;;;11.51;100.00;98827.22;4937421;28;20885;-56
2023/03/26 10:46:59;;;;;;;0.30;0.20;;;;;;;11.73;100.00;98825.97;4947862;28;20553;-55
2023/03/26 10:49:43;;;;;;;0.40;0.30;;;;;;;11.83;100.00;98820.09;4924617;28;20989;-54
2023/03/26 10:52:17;;;;;;;0.53;0.53;;;;;;;11.92;100.00;98824.00;4937318;28;20995;-56
2023/03/26 10:55:01;;;;;;;0.67;0.47;;;;;;;11.96;100.00;98809.59;4940324;28;20967;-57
2023/03/26 10:57:42;;;;;;;0.67;0.40;;;;;;;11.95;100.00;98807.00;4944330;29;20460;-56
2023/03/26 11:00:28;;;;;;;0.30;0.20;;;;;;;12.11;100.00;98806.03;4943922;29;20475;-56
2023/03/26 11:03:28;;;;;;;0.53;0.53;;;;;;;12.25;100.00;98801.69;4941941;29;20479;-55
2023/03/26 11:06:24;;;;;;;3.70;0.50;;;;;;;12.51;100.00;98802.78;4941621;28;20946;-56
2023/03/26 11:09:26;;;;;;;0.70;0.40;;;;;;;13.11;100.00;98799.97;4954962;28;20542;-54
2023/03/26 11:11:59;;;;;;;0.40;0.27;;;;;;;12.66;98.69;98807.19;4955771;28;20494;-56
2023/03/26 11:14:41;;;;;;;0.47;0.40;;;;;;;12.96;98.21;98809.78;4938769;28;21009;-56
2023/03/26 11:17:29;;;;;;;0.50;0.43;;;;;;;13.08;97.63;98816.16;4919423;29;20829;-55
2023/03/26 11:20:15;;;;;;;13.33;1.00;;;;;;;12.79;97.63;98817.97;4943678;28;21106;-57
2023/03/26 11:22:54;;;;;;;1.30;1.20;;;;;;;12.74;98.00;98808.41;4943821;29;20936;-56
2023/03/26 11:25:32;;;;;;;0.43;0.30;;;;;;;13.24;97.90;98815.13;4941852;28;20460;-55
2023/03/26 11:28:20;;;;;;;0.40;0.30;;;;;;;13.27;96.96;98800.72;4943879;28;20462;-55
2023/03/26 11:30:50;;;;;;;4.40;0.30;;;;;;;13.33;94.74;98811.88;4943236;29;20482;-56
2023/03/26 11:33:22;;;;;;;0.30;0.20;;;;;;;13.50;93.47;98805.47;4943028;28;20502;-55
2023/03/26 11:35:52;;;;;;;0.30;0.20;;;;;;;13.53;92.50;98807.94;4943471;28;20451;-56
2023/03/26 11:38:36;;;;;;;0.40;0.30;;;;;;;13.30;90.69;98817.44;4938837;29;20538;-56
2023/03/26 11:41:10;;;;;;;0.40;0.30;;;;;;;13.15;89.23;98810.34;4936987;28;20794;-57
2023/03/26 11:43:37;;;;;;;0.40;0.30;;;;;;;13.31;90.20;98815.63;4939026;28;20448;-55
2023/03/26 11:46:08;;;;;;;0.40;0.20;;;;;;;13.32;89.56;98810.19;4948921;28;20538;-55
2023/03/26 11:48:40;;;;;;;0.30;0.20;;;;;;;13.15;88.11;98805.00;4943185;28;20455;-56
2023/03/26 11:51:10;;;;;;;0.30;0.20;;;;;;;13.18;85.93;98804.84;4942965;28;20476;-57
2023/03/26 11:53:38;;;;;;;0.50;0.30;;;;;;;13.17;85.66;98796.91;4943114;29;20498;-55
2023/03/26 11:56:25;;;;;;;2.97;0.53;;;;;;;13.45;85.69;98804.91;4938000;29;20459;-56
2023/03/26 11:59:16;;;;;;;2.23;1.00;;;;;;;13.64;86.31;98801.91;4936345;28;20948;-55
2023/03/26 12:01:58;;;;;;;0.80;0.80;;;;;;;13.75;86.25;98804.75;4935787;28;20468;-55
2023/03/26 12:04:32;;;;;;;0.43;0.30;;;;;;;13.66;83.19;98805.31;4940508;28;20452;-56